createdAt,value
2022-11-19T00:01:26.942Z,2.55
2022-11-19T00:03:54.555Z,2.65
2022-11-19T00:06:27.629Z,2.50
2022-11-19T00:08:55.485Z,2.30
2022-11-19T00:11:46.354Z,2.33
2022-11-19T00:14:15.722Z,2.40
2022-11-19T00:16:46.701Z,2.65
2022-11-19T00:19:13.804Z,2.15
2022-11-19T00:21:40.787Z,2.42
2022-11-19T00:24:09.067Z,2.45
2022-11-19T00:26:35.975Z,2.17
2022-11-19T00:29:03.433Z,2.08
2022-11-19T00:31:30.185Z,2.15
2022-11-19T00:33:57.153Z,2.22
2022-11-19T00:36:23.986Z,1.92
2022-11-19T00:38:50.951Z,1.85
2022-11-19T00:41:18.318Z,2.08
2022-11-19T00:43:48.133Z,2.05
2022-11-19T00:46:26.329Z,1.65
2022-11-19T00:48:56.225Z,1.83
2022-11-19T00:51:26.244Z,2.40
2022-11-19T00:53:53.930Z,2.20
2022-11-19T00:56:24.161Z,2.00
2022-11-19T00:58:51.928Z,1.95
2022-11-19T01:01:21.721Z,1.83
2022-11-19T01:03:49.471Z,1.92
2022-11-19T01:06:19.749Z,2.63
2022-11-19T01:08:51.285Z,1.77
2022-11-19T01:11:25.771Z,2.28
2022-11-19T01:13:53.602Z,2.20
2022-11-19T01:16:29.320Z,1.70
2022-11-19T01:18:56.674Z,2.08
2022-11-19T01:21:27.061Z,2.20
2022-11-19T01:23:54.515Z,2.00
2022-11-19T01:26:21.672Z,1.90
2022-11-19T01:28:48.811Z,2.20
2022-11-19T01:31:19.977Z,2.22
2022-11-19T01:33:47.493Z,1.80
2022-11-19T01:36:19.763Z,2.00
2022-11-19T01:38:51.155Z,2.00
2022-11-19T01:41:25.142Z,1.90
2022-11-19T01:43:59.964Z,1.30
2022-11-19T01:46:33.094Z,2.13
2022-11-19T01:49:09.842Z,1.92
2022-11-19T01:51:59.193Z,2.22
2022-11-19T01:54:42.947Z,2.53
2022-11-19T01:57:17.138Z,2.10
2022-11-19T01:59:49.260Z,2.10
2022-11-19T02:02:19.711Z,2.10
2022-11-19T02:04:47.664Z,2.15
2022-11-19T02:07:14.518Z,2.53
2022-11-19T02:09:41.712Z,1.85
2022-11-19T02:12:23.107Z,1.90
2022-11-19T02:15:34.274Z,1.80
2022-11-19T02:18:03.840Z,2.00
2022-11-19T02:20:57.646Z,2.10
2022-11-19T02:24:10.812Z,1.90
2022-11-19T02:27:24.776Z,2.00
2022-11-19T02:30:13.697Z,2.13
2022-11-19T02:32:59.956Z,2.42
2022-11-19T02:35:42.533Z,2.20
2022-11-19T02:38:27.696Z,2.33
2022-11-19T02:41:31.018Z,1.98
2022-11-19T02:44:42.770Z,1.92
2022-11-19T02:47:15.451Z,2.10
2022-11-19T02:49:45.320Z,1.83
2022-11-19T02:52:16.885Z,2.10
2022-11-19T02:54:43.897Z,2.15
2022-11-19T02:57:13.019Z,2.30
2022-11-19T03:00:29.193Z,1.80
2022-11-19T03:03:36.692Z,2.15
2022-11-19T03:06:13.502Z,1.60
2022-11-19T03:08:40.743Z,1.92
2022-11-19T03:11:10.491Z,1.92
2022-11-19T03:14:07.935Z,2.10
2022-11-19T03:16:41.766Z,2.10
2022-11-19T03:19:34.079Z,2.25
2022-11-19T03:22:21.101Z,1.77
2022-11-19T03:25:02.714Z,2.10
2022-11-19T03:27:43.885Z,1.88
2022-11-19T03:30:13.243Z,1.83
2022-11-19T03:32:47.853Z,2.40
2022-11-19T03:35:29.708Z,1.60
2022-11-19T03:38:02.718Z,1.70
2022-11-19T03:40:32.552Z,1.70
2022-11-19T03:43:02.449Z,1.85
2022-11-19T03:45:38.492Z,2.20
2022-11-19T03:48:06.714Z,1.90
2022-11-19T03:50:58.538Z,2.75
2022-11-19T03:53:26.141Z,1.90
2022-11-19T03:56:04.513Z,2.42
2022-11-19T03:58:39.610Z,1.98
2022-11-19T04:01:06.781Z,2.25
2022-11-19T04:03:33.602Z,1.85
2022-11-19T04:06:00.757Z,2.13
2022-11-19T04:08:27.580Z,1.75
2022-11-19T04:10:54.395Z,1.80
2022-11-19T04:13:21.178Z,1.95
2022-11-19T04:15:47.934Z,2.05
2022-11-19T04:18:14.643Z,1.85
2022-11-19T04:20:44.321Z,2.20
2022-11-19T04:23:11.334Z,3.13
2022-11-19T04:25:38.110Z,2.45
2022-11-19T04:28:04.919Z,2.45
2022-11-19T04:30:31.662Z,2.22
2022-11-19T04:32:58.394Z,2.10
2022-11-19T04:35:25.176Z,2.70
2022-11-19T04:37:52.157Z,2.20
2022-11-19T04:40:18.891Z,2.28
2022-11-19T04:42:45.817Z,1.90
2022-11-19T04:45:12.811Z,2.75
2022-11-19T04:47:39.561Z,2.10
2022-11-19T04:50:07.499Z,2.00
2022-11-19T04:52:40.296Z,2.60
2022-11-19T04:55:08.298Z,2.47
2022-11-19T04:57:35.024Z,2.03
2022-11-19T05:00:02.008Z,2.38
2022-11-19T05:02:28.810Z,2.15
2022-11-19T05:04:55.543Z,1.85
2022-11-19T05:07:22.386Z,2.08
2022-11-19T05:09:49.276Z,2.10
2022-11-19T05:12:16.111Z,2.15
2022-11-19T05:14:43.006Z,1.77
2022-11-19T05:17:09.727Z,1.42
2022-11-19T05:19:36.560Z,2.53
2022-11-19T05:22:03.372Z,2.20
2022-11-19T05:24:30.093Z,2.00
2022-11-19T05:26:56.856Z,2.10
2022-11-19T05:29:23.580Z,2.03
2022-11-19T05:31:50.306Z,2.28
2022-11-19T05:34:17.083Z,1.90
2022-11-19T05:36:43.818Z,2.33
2022-11-19T05:39:10.548Z,1.92
2022-11-19T05:41:37.863Z,1.92
2022-11-19T05:44:05.038Z,1.88
2022-11-19T05:46:31.799Z,1.88
2022-11-19T05:48:58.707Z,1.80
2022-11-19T05:51:25.462Z,2.15
2022-11-19T05:53:52.263Z,2.00
2022-11-19T05:56:19.127Z,2.15
2022-11-19T05:58:45.855Z,1.85
2022-11-19T06:01:14.791Z,1.70
2022-11-19T06:03:41.853Z,2.17
2022-11-19T06:06:08.847Z,1.60
2022-11-19T06:08:35.599Z,1.70
2022-11-19T06:11:04.751Z,1.85
2022-11-19T06:13:31.505Z,1.85
2022-11-19T06:15:58.273Z,2.03
2022-11-19T06:18:25.006Z,2.28
2022-11-19T06:20:51.808Z,1.63
2022-11-19T06:23:18.586Z,2.10
2022-11-19T06:25:45.320Z,2.05
2022-11-19T06:28:12.049Z,2.20
2022-11-19T06:30:38.803Z,2.10
2022-11-19T06:33:05.528Z,2.35
2022-11-19T06:35:32.389Z,2.20
2022-11-19T06:37:59.146Z,1.75
2022-11-19T06:40:26.066Z,1.73
2022-11-19T06:42:52.813Z,1.70
2022-11-19T06:45:19.677Z,2.17
2022-11-19T06:47:49.272Z,1.90
2022-11-19T06:50:16.193Z,2.05
2022-11-19T06:52:43.064Z,2.40
2022-11-19T06:55:10.437Z,1.85
2022-11-19T06:57:37.379Z,2.28
2022-11-19T07:00:05.274Z,1.92
2022-11-19T07:02:32.100Z,1.63
2022-11-19T07:04:59.033Z,2.05
2022-11-19T07:07:25.798Z,1.85
2022-11-19T07:09:52.598Z,1.73
2022-11-19T07:12:19.316Z,1.55
2022-11-19T07:14:46.056Z,2.33
2022-11-19T07:17:12.819Z,1.70
2022-11-19T07:19:39.812Z,2.15
2022-11-19T07:22:06.694Z,2.03
2022-11-19T07:24:33.607Z,1.80
2022-11-19T07:27:00.339Z,1.85
2022-11-19T07:29:27.215Z,1.67
2022-11-19T07:31:54.229Z,2.15
2022-11-19T07:34:21.809Z,1.85
2022-11-19T07:36:50.485Z,2.30
2022-11-19T07:39:17.725Z,2.05
2022-11-19T07:42:03.405Z,2.35
2022-11-19T07:44:30.169Z,1.98
2022-11-19T07:46:57.083Z,1.90
2022-11-19T07:49:25.078Z,2.33
2022-11-19T07:51:53.373Z,1.70
2022-11-19T07:54:20.343Z,1.98
2022-11-19T07:56:47.099Z,2.53
2022-11-19T07:59:14.082Z,1.95
2022-11-19T08:01:40.871Z,2.20
2022-11-19T08:04:07.718Z,2.00
2022-11-19T08:06:34.904Z,2.25
2022-11-19T08:09:04.108Z,1.67
2022-11-19T08:11:31.778Z,1.90
2022-11-19T08:14:02.741Z,1.63
2022-11-19T08:16:48.708Z,2.17
2022-11-19T08:19:17.537Z,2.58
2022-11-19T08:21:46.914Z,2.75
2022-11-19T08:24:15.941Z,2.60
2022-11-19T08:26:43.860Z,2.70
2022-11-19T08:29:16.534Z,2.13
2022-11-19T08:31:46.512Z,1.80
2022-11-19T08:34:14.013Z,2.00
2022-11-19T08:36:40.945Z,2.15
2022-11-19T08:39:09.245Z,2.33
2022-11-19T08:41:54.850Z,2.03
2022-11-19T08:44:21.972Z,2.30
2022-11-19T08:46:50.675Z,1.67
2022-11-19T08:49:17.726Z,2.33
2022-11-19T08:51:44.514Z,2.38
2022-11-19T08:54:12.984Z,2.25
2022-11-19T08:56:39.748Z,2.35
2022-11-19T08:59:06.872Z,2.63
2022-11-19T09:01:33.611Z,3.03
2022-11-19T09:04:00.455Z,2.28
2022-11-19T09:06:27.801Z,2.55
2022-11-19T09:08:54.541Z,2.40
2022-11-19T09:11:22.951Z,2.08
2022-11-19T09:13:49.957Z,1.80
2022-11-19T09:16:17.421Z,2.22
2022-11-19T09:18:44.618Z,2.13
2022-11-19T09:21:12.242Z,2.33
2022-11-19T09:23:41.590Z,2.28
2022-11-19T09:26:17.970Z,2.10
2022-11-19T09:28:45.511Z,1.80
2022-11-19T09:31:16.884Z,2.38
2022-11-19T09:33:48.450Z,2.17
2022-11-19T09:36:15.571Z,2.67
2022-11-19T09:38:42.452Z,2.25
2022-11-19T09:41:22.054Z,2.22
2022-11-19T09:44:00.794Z,2.13
2022-11-19T09:47:14.468Z,2.45
2022-11-19T09:49:47.583Z,1.98
2022-11-19T09:52:20.161Z,2.25
2022-11-19T09:54:51.037Z,2.40
2022-11-19T09:57:42.495Z,2.65
2022-11-19T10:00:13.303Z,2.30
2022-11-19T10:02:40.459Z,2.35
2022-11-19T10:05:08.448Z,2.72
2022-11-19T10:07:49.796Z,4.13
2022-11-19T10:10:22.844Z,4.10
2022-11-19T10:13:13.024Z,4.35
2022-11-19T10:16:39.010Z,3.90
2022-11-19T10:19:24.659Z,4.63
2022-11-19T10:22:02.250Z,4.28
2022-11-19T10:24:41.457Z,4.90
2022-11-19T10:27:24.008Z,4.35
2022-11-19T10:29:55.331Z,3.95
2022-11-19T10:32:39.561Z,3.75
2022-11-19T10:35:31.843Z,5.85
2022-11-19T10:38:02.546Z,5.45
2022-11-19T10:40:41.820Z,7.05
2022-11-19T10:43:23.842Z,5.88
2022-11-19T10:45:51.047Z,5.15
2022-11-19T10:48:23.282Z,4.30
2022-11-19T10:50:56.065Z,5.50
2022-11-19T10:53:37.104Z,4.97
2022-11-19T10:56:14.605Z,4.10
2022-11-19T10:58:53.942Z,3.25
2022-11-19T11:01:35.243Z,3.35
2022-11-19T11:04:19.710Z,3.65
2022-11-19T11:07:06.980Z,3.40
2022-11-19T11:09:44.124Z,3.50
2022-11-19T11:12:38.826Z,3.40
2022-11-19T11:15:08.765Z,2.80
2022-11-19T11:17:36.709Z,3.13
2022-11-19T11:20:16.713Z,3.30
2022-11-19T11:22:46.001Z,2.60
2022-11-19T11:25:28.361Z,2.30
2022-11-19T11:28:18.483Z,2.83
2022-11-19T11:30:56.178Z,2.78
2022-11-19T11:33:56.063Z,2.22
2022-11-19T11:36:27.178Z,2.60
2022-11-19T11:38:58.516Z,2.85
2022-11-19T11:44:33.903Z,3.22
2022-11-19T11:47:20.677Z,2.80
2022-11-19T11:50:16.452Z,3.38
2022-11-19T11:55:36.162Z,3.03
2022-11-19T11:58:24.754Z,2.67
2022-11-19T12:00:56.183Z,2.50
2022-11-19T12:03:23.242Z,2.40
2022-11-19T12:06:05.417Z,2.33
2022-11-19T12:09:04.198Z,2.70
2022-11-19T12:11:55.313Z,2.70
2022-11-19T12:14:34.155Z,2.13
2022-11-19T12:17:18.934Z,2.05
2022-11-19T12:20:17.694Z,1.77
2022-11-19T12:22:58.634Z,2.05
2022-11-19T12:25:59.138Z,2.05
2022-11-19T12:29:20.829Z,2.53
2022-11-19T12:32:15.551Z,2.88
2022-11-19T12:35:04.830Z,2.75
2022-11-19T12:38:05.648Z,2.55
2022-11-19T12:41:13.061Z,2.35
2022-11-19T12:43:57.358Z,3.08
2022-11-19T12:46:55.508Z,2.83
2022-11-19T12:49:48.223Z,2.38
2022-11-19T12:52:33.027Z,2.83
2022-11-19T12:55:27.125Z,2.67
2022-11-19T12:58:25.755Z,2.30
2022-11-19T13:01:01.845Z,2.42
2022-11-19T13:03:48.456Z,2.65
2022-11-19T13:06:26.503Z,2.30
2022-11-19T13:09:03.689Z,3.47
2022-11-19T13:11:51.605Z,2.08
2022-11-19T13:14:58.202Z,2.00
2022-11-19T13:17:35.661Z,1.98
2022-11-19T13:20:08.281Z,2.22
2022-11-19T13:22:43.744Z,2.33
2022-11-19T13:25:27.981Z,2.03
2022-11-19T13:27:57.809Z,2.13
2022-11-19T13:30:26.978Z,1.70
2022-11-19T13:33:19.004Z,2.90
2022-11-19T13:35:54.735Z,3.08
2022-11-19T13:38:34.727Z,2.53
2022-11-19T13:41:07.337Z,2.33
2022-11-19T13:43:53.466Z,2.53
2022-11-19T13:46:40.995Z,2.30
2022-11-19T13:49:25.453Z,2.00
2022-11-19T13:52:05.430Z,2.83
2022-11-19T13:54:41.314Z,2.72
2022-11-19T13:57:09.922Z,2.20
2022-11-19T13:59:48.503Z,2.20
2022-11-19T14:02:39.685Z,2.03
2022-11-19T14:05:41.858Z,2.20
2022-11-19T14:08:46.816Z,2.22
2022-11-19T14:11:31.502Z,2.83
2022-11-19T14:14:30.156Z,6.75
2022-11-19T14:17:27.970Z,5.22
2022-11-19T14:20:16.269Z,3.92
2022-11-19T14:23:13.864Z,2.83
2022-11-19T14:26:07.387Z,2.35
2022-11-19T14:28:42.643Z,2.35
2022-11-19T14:31:09.620Z,2.10
2022-11-19T14:33:48.615Z,2.40
2022-11-19T14:36:38.302Z,2.38
2022-11-19T14:39:17.371Z,2.10
2022-11-19T14:41:45.605Z,2.30
2022-11-19T14:44:24.923Z,3.28
2022-11-19T14:46:51.802Z,2.63
2022-11-19T14:49:36.256Z,2.20
2022-11-19T14:52:03.364Z,1.90
2022-11-19T14:54:37.672Z,2.42
2022-11-19T14:57:23.933Z,2.03
2022-11-19T14:59:55.610Z,2.38
2022-11-19T15:02:46.263Z,1.90
2022-11-19T15:05:12.998Z,2.03
2022-11-19T15:07:48.925Z,2.53
2022-11-19T15:10:18.238Z,2.47
2022-11-19T15:12:44.909Z,2.90
2022-11-19T15:15:20.759Z,2.83
2022-11-19T15:18:12.165Z,3.85
2022-11-19T15:21:16.183Z,3.75
2022-11-19T15:24:13.620Z,4.40
2022-11-19T15:27:13.878Z,3.97
2022-11-19T15:29:49.653Z,3.05
2022-11-19T15:32:51.590Z,3.95
2022-11-19T15:35:55.131Z,2.83
2022-11-19T15:38:21.850Z,3.65
2022-11-19T15:40:52.774Z,3.88
2022-11-19T15:43:28.821Z,3.78
2022-11-19T15:46:11.870Z,4.25
2022-11-19T15:48:54.118Z,3.75
2022-11-19T15:51:22.460Z,3.60
2022-11-19T15:54:00.489Z,3.40
2022-11-19T15:56:32.355Z,4.00
2022-11-19T15:59:01.107Z,3.65
2022-11-19T16:01:29.439Z,3.90
2022-11-19T16:03:56.301Z,4.63
2022-11-19T16:06:27.470Z,3.75
2022-11-19T16:08:58.499Z,4.57
2022-11-19T16:11:48.553Z,4.57
2022-11-19T16:14:42.247Z,5.03
2022-11-19T16:17:34.926Z,5.72
2022-11-19T16:20:11.422Z,6.35
2022-11-19T16:22:49.350Z,6.30
2022-11-19T16:25:34.626Z,6.35
2022-11-19T16:30:44.211Z,6.82
2022-11-19T16:33:19.358Z,9.00
2022-11-19T16:35:52.349Z,12.70
2022-11-19T16:38:30.648Z,14.60
2022-11-19T16:41:16.458Z,15.85
2022-11-19T16:43:48.686Z,15.70
2022-11-19T16:46:20.843Z,16.17
2022-11-19T16:48:50.727Z,16.25
2022-11-19T16:51:34.263Z,12.57
2022-11-19T16:54:02.532Z,9.60
2022-11-19T16:56:47.870Z,9.07
2022-11-19T17:02:00.082Z,6.15
2022-11-19T17:04:31.919Z,5.90
2022-11-19T17:06:59.953Z,5.50
2022-11-19T17:09:45.412Z,5.65
2022-11-19T17:12:29.936Z,5.07
2022-11-19T17:15:07.890Z,4.90
2022-11-19T17:17:42.279Z,5.13
2022-11-19T17:20:32.336Z,5.90
2022-11-19T17:23:00.807Z,6.07
2022-11-19T17:25:28.112Z,6.90
2022-11-19T17:27:58.007Z,6.97
2022-11-19T17:30:26.839Z,7.72
2022-11-19T17:32:56.844Z,7.28
2022-11-19T17:35:47.483Z,7.15
2022-11-19T17:38:35.366Z,7.05
2022-11-19T17:41:05.249Z,7.05
2022-11-19T17:43:54.557Z,6.32
2022-11-19T17:46:22.853Z,6.90
2022-11-19T17:48:51.009Z,6.88
2022-11-19T17:51:24.507Z,6.05
2022-11-19T17:53:52.745Z,7.07
2022-11-19T17:56:25.832Z,6.18
2022-11-19T17:58:52.645Z,8.32
2022-11-19T18:01:19.859Z,7.53
2022-11-19T18:03:47.429Z,6.95
2022-11-19T18:06:17.569Z,6.60
2022-11-19T18:08:44.955Z,7.07
2022-11-19T18:11:17.672Z,6.82
2022-11-19T18:13:46.162Z,6.35
2022-11-19T18:16:19.717Z,6.45
2022-11-19T18:18:47.010Z,7.32
2022-11-19T18:21:17.134Z,7.15
2022-11-19T18:23:45.565Z,6.40
2022-11-19T18:26:18.612Z,6.88
2022-11-19T18:28:48.833Z,6.97
2022-11-19T18:31:28.226Z,8.18
2022-11-19T18:33:58.192Z,7.93
2022-11-19T18:36:25.844Z,7.53
2022-11-19T18:38:53.182Z,8.48
2022-11-19T18:41:20.631Z,10.85
2022-11-19T18:44:07.614Z,11.15
2022-11-19T18:46:34.481Z,12.23
2022-11-19T18:49:01.361Z,10.90
2022-11-19T18:51:30.905Z,10.10
2022-11-19T18:53:57.830Z,15.02
2022-11-19T18:56:24.624Z,24.02
2022-11-19T18:58:51.506Z,29.35
2022-11-19T19:01:18.996Z,26.42
2022-11-19T19:03:46.013Z,28.92
2022-11-19T19:06:12.886Z,29.20
2022-11-19T19:08:40.043Z,26.92
2022-11-19T19:11:26.980Z,27.42
2022-11-19T19:13:54.620Z,32.33
2022-11-19T19:16:22.625Z,27.75
2022-11-19T19:18:49.678Z,26.77
2022-11-19T19:21:20.216Z,24.70
2022-11-19T19:23:47.547Z,22.17
2022-11-19T19:26:17.000Z,20.42
2022-11-19T19:28:48.779Z,20.25
2022-11-19T19:31:17.947Z,15.93
2022-11-19T19:33:46.404Z,15.48
2022-11-19T19:36:14.546Z,13.68
2022-11-19T19:38:41.911Z,14.43
2022-11-19T19:41:15.426Z,14.73
2022-11-19T19:43:42.561Z,15.90
2022-11-19T19:46:16.434Z,13.95
2022-11-19T19:48:49.390Z,19.80
2022-11-19T19:51:17.462Z,16.20
2022-11-19T19:53:44.942Z,20.77
2022-11-19T19:56:15.958Z,13.90
2022-11-19T19:58:44.739Z,15.85
2022-11-19T20:01:16.713Z,14.48
2022-11-19T20:03:44.865Z,14.23
2022-11-19T20:06:14.824Z,16.35
2022-11-19T20:08:42.653Z,19.98
2022-11-19T20:11:24.724Z,17.48
2022-11-19T20:13:53.817Z,17.73
2022-11-19T20:16:24.536Z,18.40
2022-11-19T20:18:53.429Z,16.02
2022-11-19T20:21:28.679Z,15.20
2022-11-19T20:23:55.795Z,14.38
2022-11-19T20:26:31.980Z,14.02
2022-11-19T20:29:05.676Z,14.10
2022-11-19T20:31:34.449Z,12.65
2022-11-19T20:34:04.758Z,13.40
2022-11-19T20:36:35.407Z,11.73
2022-11-19T20:39:03.001Z,10.95
2022-11-19T20:41:48.373Z,11.70
2022-11-19T20:46:57.159Z,10.40
2022-11-19T20:49:27.383Z,10.48
2022-11-19T20:51:55.207Z,10.30
2022-11-19T20:54:23.869Z,11.13
2022-11-19T20:56:52.327Z,10.85
2022-11-19T20:59:19.869Z,11.60
2022-11-19T21:01:50.175Z,10.98
2022-11-19T21:04:17.945Z,11.20
2022-11-19T21:06:45.074Z,9.77
2022-11-19T21:09:12.202Z,8.90
2022-11-19T21:11:39.112Z,10.50
2022-11-19T21:14:07.420Z,9.98
2022-11-19T21:16:34.298Z,10.32
2022-11-19T21:19:01.218Z,8.73
2022-11-19T21:21:28.063Z,9.52
2022-11-19T21:23:55.647Z,10.18
2022-11-19T21:26:27.827Z,9.45
2022-11-19T21:28:58.479Z,8.40
2022-11-19T21:31:40.788Z,8.13
2022-11-19T21:34:17.863Z,7.90
2022-11-19T21:36:46.431Z,8.05
2022-11-19T21:39:16.775Z,8.70
2022-11-19T21:41:44.232Z,9.02
2022-11-19T21:44:13.317Z,7.10
2022-11-19T21:46:43.547Z,7.82
2022-11-19T21:49:10.442Z,8.65
2022-11-19T21:51:37.846Z,8.93
2022-11-19T21:54:04.870Z,9.45
2022-11-19T21:56:38.033Z,8.35
2022-11-19T21:59:06.870Z,7.65
2022-11-19T22:01:33.847Z,8.05
2022-11-19T22:04:00.617Z,8.27
2022-11-19T22:06:27.691Z,7.93
2022-11-19T22:08:54.822Z,13.23
2022-11-19T22:11:31.093Z,23.10
2022-11-19T22:14:09.293Z,10.20
2022-11-19T22:16:39.360Z,9.40
2022-11-19T22:19:07.249Z,9.73
2022-11-19T22:21:34.912Z,9.95
2022-11-19T22:24:01.991Z,10.05
2022-11-19T22:26:29.104Z,12.18
2022-11-19T22:28:56.194Z,9.30
2022-11-19T22:31:24.408Z,9.60
2022-11-19T22:33:52.277Z,9.80
2022-11-19T22:36:21.093Z,9.73
2022-11-19T22:38:48.559Z,9.73
2022-11-19T22:41:18.330Z,8.55
2022-11-19T22:43:46.124Z,9.65
2022-11-19T22:46:14.942Z,9.93
2022-11-19T22:48:42.201Z,10.55
2022-11-19T22:51:13.745Z,10.18
2022-11-19T22:53:41.449Z,11.00
2022-11-19T22:56:11.180Z,11.63
2022-11-19T22:58:38.808Z,11.90
2022-11-19T23:01:08.135Z,10.38
2022-11-19T23:03:35.257Z,9.90
2022-11-19T23:06:02.062Z,10.55
2022-11-19T23:08:29.135Z,9.55
2022-11-19T23:11:02.493Z,9.50
2022-11-19T23:13:31.992Z,10.02
2022-11-19T23:16:11.214Z,8.73
2022-11-19T23:18:46.660Z,8.38
2022-11-19T23:21:17.740Z,8.18
2022-11-19T23:23:44.921Z,7.32
2022-11-19T23:26:14.681Z,7.32
2022-11-19T23:28:42.246Z,6.97
2022-11-19T23:31:14.115Z,6.82
2022-11-19T23:33:42.938Z,6.32
2022-11-19T23:36:23.015Z,6.75
2022-11-19T23:38:50.282Z,7.10
2022-11-19T23:41:19.441Z,7.70
2022-11-19T23:43:47.014Z,7.18
2022-11-19T23:46:22.191Z,7.78
2022-11-19T23:48:50.314Z,7.50
2022-11-19T23:51:29.702Z,6.82
2022-11-19T23:53:57.226Z,7.43
2022-11-19T23:56:25.467Z,6.10
2022-11-19T23:58:52.862Z,6.50
